Airfield :
LOGIN :

Register | Disclaimer

   EN    FR    IT 

 










Legend :    VFR   Marginal VFR   IFR   Intensive IFR   Very Intensive IFR
Visi :
Ceiling :
>= 8 km
>= 3000ft
5 to 8 km
1000 to 3000 ft
1500m to 5 km
500 to 1000 ft
800 to 1500m
200 to 500 ft
< 800m
< 200 ft
Symbols :   Thunderstorms  Fog  Heavy snow  Heavy precipitations  Wind > 20 kt
SIGMETs :     Misc.  Thunderstorms  Icing  Turbulence  Mountain Waves  Volcanic Ashes






- Airport Elevation : 1966 ft
- IATA code : SGE


EDGS - Siegerland

CURRENT METAR :
  • 082150Z AUTO 24005KT 9999 BKN020/// 00/00 Q1001

EXPIRED METARs :
  • 082120Z AUTO 24003KT 9999 BKN019/// OVC140/// 00/00 Q1000
  • 082050Z AUTO 21003KT 0900 R13/1400U VV/// M00/M00 Q1000
  • 082020Z AUTO 18004KT 0500 R13/0800N VV/// M00/M00 Q1000
  • 081950Z AUTO VRB02KT 1100 R13/P2000N VV/// M00/M00 Q1000
  • 081920Z AUTO 21005KT 1400 R13/P2000N FEW120/// BKN150/// 00/00 Q1000

TAF AMD TAF EDGS
Valid from the 08 at 15:00 until the 09 at 00:00 UTC


081555Z 0815/0824 21005KT 6000 FEW005
TEMPO 0815/0820 4000 BR BKN004
BECMG 0820/0823 4000 BR BKN004
PROB30
TEMPO 0822/0824 0800 FZFG OVC001



MET'MAP, your aeronautical weather chart ! - Copyright ORBIFLY December 2007 - Disclaimer

ORBIFLY MET'MAP TEAM :

Programming & Development : Alexandra Zaïnal
Concept & original design : Baudouin d'Aumeries
Assistance for programming : Marc-Olivier Méhu
Technical & hardware support : Manuel Goepfert

Contact : metmap@orbifly.com




SOURCES & CREDITS :

   NOAA